Disclaimer

Please do not use the information listed here in-flight or in-navigation, as they are not provided to us by the airports but are provided by volunteers, so they might be outdated.

Search


Regions


Airport information page

Radio informations:
Aerodrome flight information system (AFIS) - 118.3 MHz

Airport informations:
Latitude: 07° 24' 03.21" S
Longitude: 020° 49' 06.53" E
Elevation: 2451 feet - 747 meters
Operating hours: N/A
Operating agency: Civil government, landing fees and diplomatic clearance may be required
Timezone: UTC+1
Fuel: N/A

Runway information:
04/22 - 6468 x 80 feet< - >1971 x 24 meters

Recent METARs:
FNDU 130500Z 17008KT 9999 FEW020 BKN033CB 21/17 Q1015

Airport on the map: